sensor_id;sensor_type;location;lat;lon;timestamp;P1;durP1;ratioP1;P2;durP2;ratioP2
47153;SDS011;32907;41.412;2.164;2023-05-10T00:00:39;2.63;;;0.90;;
47153;SDS011;32907;41.412;2.164;2023-05-10T00:03:08;2.17;;;0.80;;
47153;SDS011;32907;41.412;2.164;2023-05-10T00:05:36;1.58;;;0.70;;
47153;SDS011;32907;41.412;2.164;2023-05-10T00:08:04;2.00;;;0.75;;
47153;SDS011;32907;41.412;2.164;2023-05-10T00:10:32;3.00;;;0.80;;
47153;SDS011;32907;41.412;2.164;2023-05-10T00:13:00;2.47;;;0.60;;
47153;SDS011;32907;41.412;2.164;2023-05-10T00:15:30;1.75;;;0.80;;
47153;SDS011;32907;41.412;2.164;2023-05-10T00:17:59;1.98;;;1.15;;
47153;SDS011;32907;41.412;2.164;2023-05-10T00:20:27;1.67;;;0.88;;
47153;SDS011;32907;41.412;2.164;2023-05-10T00:22:55;1.63;;;0.70;;
47153;SDS011;32907;41.412;2.164;2023-05-10T00:25:23;2.38;;;0.70;;
47153;SDS011;32907;41.412;2.164;2023-05-10T00:27:52;3.70;;;0.90;;
47153;SDS011;32907;41.412;2.164;2023-05-10T00:30:25;2.63;;;0.80;;
47153;SDS011;32907;41.412;2.164;2023-05-10T00:32:54;2.53;;;0.95;;
47153;SDS011;32907;41.412;2.164;2023-05-10T00:35:23;3.22;;;1.20;;
47153;SDS011;32907;41.412;2.164;2023-05-10T00:37:51;2.33;;;1.00;;
47153;SDS011;32907;41.412;2.164;2023-05-10T00:40:20;3.15;;;1.00;;
47153;SDS011;32907;41.412;2.164;2023-05-10T00:42:53;1.90;;;0.85;;
47153;SDS011;32907;41.412;2.164;2023-05-10T00:45:21;3.28;;;1.20;;
47153;SDS011;32907;41.412;2.164;2023-05-10T00:47:51;2.42;;;1.02;;
47153;SDS011;32907;41.412;2.164;2023-05-10T00:50:24;2.25;;;0.80;;
47153;SDS011;32907;41.412;2.164;2023-05-10T00:52:53;1.45;;;0.95;;
47153;SDS011;32907;41.412;2.164;2023-05-10T00:55:22;2.33;;;0.90;;
47153;SDS011;32907;41.412;2.164;2023-05-10T00:57:51;1.92;;;0.90;;
47153;SDS011;32907;41.412;2.164;2023-05-10T01:00:20;2.55;;;0.90;;
47153;SDS011;32907;41.412;2.164;2023-05-10T01:02:49;1.50;;;0.93;;
47153;SDS011;32907;41.412;2.164;2023-05-10T01:05:18;1.75;;;0.68;;
47153;SDS011;32907;41.412;2.164;2023-05-10T01:07:49;2.65;;;1.08;;
47153;SDS011;32907;41.412;2.164;2023-05-10T01:10:17;2.05;;;0.90;;
47153;SDS011;32907;41.412;2.164;2023-05-10T01:12:46;2.33;;;0.80;;
47153;SDS011;32907;41.412;2.164;2023-05-10T01:15:15;2.25;;;0.93;;
47153;SDS011;32907;41.412;2.164;2023-05-10T01:17:45;4.05;;;1.00;;
47153;SDS011;32907;41.412;2.164;2023-05-10T01:20:19;2.75;;;0.82;;
47153;SDS011;32907;41.412;2.164;2023-05-10T01:31:03;2.00;;;0.88;;
47153;SDS011;32907;41.412;2.164;2023-05-10T01:38:57;3.28;;;1.23;;
47153;SDS011;32907;41.412;2.164;2023-05-10T01:44:18;3.42;;;1.27;;
47153;SDS011;32907;41.412;2.164;2023-05-10T01:47:25;2.28;;;1.10;;
47153;SDS011;32907;41.412;2.164;2023-05-10T01:49:52;2.83;;;1.05;;
47153;SDS011;32907;41.412;2.164;2023-05-10T01:52:30;3.33;;;1.55;;
47153;SDS011;32907;41.412;2.164;2023-05-10T01:55:02;1.90;;;1.00;;
47153;SDS011;32907;41.412;2.164;2023-05-10T01:57:35;3.15;;;1.10;;
47153;SDS011;32907;41.412;2.164;2023-05-10T02:00:07;2.50;;;1.02;;
47153;SDS011;32907;41.412;2.164;2023-05-10T02:02:48;2.37;;;1.00;;
47153;SDS011;32907;41.412;2.164;2023-05-10T02:05:18;2.22;;;1.20;;
47153;SDS011;32907;41.412;2.164;2023-05-10T02:07:48;2.65;;;0.95;;
47153;SDS011;32907;41.412;2.164;2023-05-10T02:10:18;3.47;;;0.82;;
47153;SDS011;32907;41.412;2.164;2023-05-10T02:12:47;1.92;;;0.98;;
47153;SDS011;32907;41.412;2.164;2023-05-10T02:15:20;2.08;;;0.93;;
47153;SDS011;32907;41.412;2.164;2023-05-10T02:17:50;2.17;;;1.10;;
47153;SDS011;32907;41.412;2.164;2023-05-10T02:20:22;2.28;;;0.90;;
47153;SDS011;32907;41.412;2.164;2023-05-10T02:22:54;2.40;;;0.80;;
47153;SDS011;32907;41.412;2.164;2023-05-10T02:25:29;2.45;;;0.80;;
47153;SDS011;32907;41.412;2.164;2023-05-10T02:27:59;4.47;;;1.08;;
47153;SDS011;32907;41.412;2.164;2023-05-10T02:30:31;1.77;;;0.73;;
47153;SDS011;32907;41.412;2.164;2023-05-10T02:33:01;3.40;;;0.95;;
47153;SDS011;32907;41.412;2.164;2023-05-10T02:35:33;2.58;;;0.82;;
47153;SDS011;32907;41.412;2.164;2023-05-10T02:38:03;2.25;;;0.90;;
47153;SDS011;32907;41.412;2.164;2023-05-10T02:40:32;1.92;;;0.73;;
47153;SDS011;32907;41.412;2.164;2023-05-10T02:43:02;2.17;;;0.88;;
47153;SDS011;32907;41.412;2.164;2023-05-10T02:45:33;2.65;;;1.10;;
47153;SDS011;32907;41.412;2.164;2023-05-10T02:48:06;3.35;;;1.00;;
47153;SDS011;32907;41.412;2.164;2023-05-10T02:50:35;3.53;;;1.15;;
47153;SDS011;32907;41.412;2.164;2023-05-10T02:53:09;2.85;;;0.90;;
47153;SDS011;32907;41.412;2.164;2023-05-10T02:55:43;2.37;;;0.83;;
47153;SDS011;32907;41.412;2.164;2023-05-10T02:58:17;1.70;;;1.00;;
47153;SDS011;32907;41.412;2.164;2023-05-10T03:00:47;1.83;;;0.90;;
47153;SDS011;32907;41.412;2.164;2023-05-10T03:03:16;4.47;;;1.38;;
47153;SDS011;32907;41.412;2.164;2023-05-10T03:05:44;1.95;;;1.10;;
47153;SDS011;32907;41.412;2.164;2023-05-10T03:08:12;3.13;;;1.45;;
47153;SDS011;32907;41.412;2.164;2023-05-10T03:10:42;2.75;;;1.08;;
47153;SDS011;32907;41.412;2.164;2023-05-10T03:13:34;4.57;;;1.50;;
47153;SDS011;32907;41.412;2.164;2023-05-10T03:16:21;2.45;;;1.05;;
47153;SDS011;32907;41.412;2.164;2023-05-10T03:21:44;3.30;;;1.70;;
47153;SDS011;32907;41.412;2.164;2023-05-10T03:24:20;4.15;;;2.00;;
47153;SDS011;32907;41.412;2.164;2023-05-10T03:26:54;4.85;;;2.17;;
47153;SDS011;32907;41.412;2.164;2023-05-10T03:29:25;4.07;;;2.00;;
47153;SDS011;32907;41.412;2.164;2023-05-10T03:31:54;5.32;;;2.47;;
47153;SDS011;32907;41.412;2.164;2023-05-10T03:34:26;5.10;;;2.15;;
47153;SDS011;32907;41.412;2.164;2023-05-10T03:36:56;3.45;;;1.98;;
47153;SDS011;32907;41.412;2.164;2023-05-10T03:39:26;5.90;;;1.95;;
47153;SDS011;32907;41.412;2.164;2023-05-10T03:41:57;2.78;;;1.83;;
47153;SDS011;32907;41.412;2.164;2023-05-10T03:44:27;4.70;;;2.00;;
47153;SDS011;32907;41.412;2.164;2023-05-10T03:46:55;3.30;;;1.60;;
47153;SDS011;32907;41.412;2.164;2023-05-10T03:49:24;3.45;;;1.42;;
47153;SDS011;32907;41.412;2.164;2023-05-10T03:51:52;3.03;;;1.20;;
47153;SDS011;32907;41.412;2.164;2023-05-10T03:54:21;3.05;;;1.23;;
47153;SDS011;32907;41.412;2.164;2023-05-10T03:56:49;2.90;;;1.15;;
47153;SDS011;32907;41.412;2.164;2023-05-10T03:59:21;6.03;;;1.20;;
47153;SDS011;32907;41.412;2.164;2023-05-10T04:01:51;2.42;;;0.93;;
47153;SDS011;32907;41.412;2.164;2023-05-10T04:04:20;6.30;;;1.42;;
47153;SDS011;32907;41.412;2.164;2023-05-10T04:06:50;1.63;;;0.70;;
47153;SDS011;32907;41.412;2.164;2023-05-10T04:09:21;3.28;;;1.20;;
47153;SDS011;32907;41.412;2.164;2023-05-10T04:11:51;2.70;;;1.02;;
47153;SDS011;32907;41.412;2.164;2023-05-10T04:14:21;2.75;;;1.27;;
47153;SDS011;32907;41.412;2.164;2023-05-10T04:16:49;2.55;;;0.90;;
47153;SDS011;32907;41.412;2.164;2023-05-10T04:19:17;2.90;;;1.05;;
47153;SDS011;32907;41.412;2.164;2023-05-10T04:21:46;1.33;;;0.60;;
47153;SDS011;32907;41.412;2.164;2023-05-10T04:24:14;2.80;;;1.00;;
47153;SDS011;32907;41.412;2.164;2023-05-10T04:26:42;3.25;;;0.70;;
47153;SDS011;32907;41.412;2.164;2023-05-10T04:29:10;2.22;;;0.90;;
47153;SDS011;32907;41.412;2.164;2023-05-10T04:31:41;1.77;;;0.70;;
47153;SDS011;32907;41.412;2.164;2023-05-10T04:34:10;3.50;;;0.80;;
47153;SDS011;32907;41.412;2.164;2023-05-10T04:36:38;10.35;;;5.10;;
47153;SDS011;32907;41.412;2.164;2023-05-10T04:39:06;10.30;;;5.55;;
47153;SDS011;32907;41.412;2.164;2023-05-10T04:41:34;7.05;;;3.85;;
47153;SDS011;32907;41.412;2.164;2023-05-10T04:44:05;5.45;;;2.45;;
47153;SDS011;32907;41.412;2.164;2023-05-10T04:46:33;4.22;;;2.05;;
47153;SDS011;32907;41.412;2.164;2023-05-10T04:49:02;2.47;;;1.30;;
47153;SDS011;32907;41.412;2.164;2023-05-10T04:51:29;3.42;;;1.00;;
47153;SDS011;32907;41.412;2.164;2023-05-10T04:54:00;2.22;;;0.93;;
47153;SDS011;32907;41.412;2.164;2023-05-10T04:56:33;3.97;;;1.20;;
47153;SDS011;32907;41.412;2.164;2023-05-10T04:59:01;4.18;;;1.58;;
47153;SDS011;32907;41.412;2.164;2023-05-10T05:01:28;6.20;;;2.10;;
47153;SDS011;32907;41.412;2.164;2023-05-10T05:03:57;5.13;;;2.50;;
47153;SDS011;32907;41.412;2.164;2023-05-10T05:06:27;5.68;;;2.53;;
47153;SDS011;32907;41.412;2.164;2023-05-10T05:08:54;4.55;;;2.60;;
47153;SDS011;32907;41.412;2.164;2023-05-10T05:11:22;4.20;;;1.92;;
47153;SDS011;32907;41.412;2.164;2023-05-10T05:13:50;5.15;;;1.75;;
47153;SDS011;32907;41.412;2.164;2023-05-10T05:16:19;4.70;;;1.90;;
47153;SDS011;32907;41.412;2.164;2023-05-10T05:18:47;2.53;;;1.38;;
47153;SDS011;32907;41.412;2.164;2023-05-10T05:21:16;2.75;;;1.25;;
47153;SDS011;32907;41.412;2.164;2023-05-10T05:23:45;6.45;;;1.55;;
47153;SDS011;32907;41.412;2.164;2023-05-10T05:26:13;5.18;;;0.90;;
47153;SDS011;32907;41.412;2.164;2023-05-10T05:28:42;3.22;;;0.80;;
47153;SDS011;32907;41.412;2.164;2023-05-10T05:31:10;2.67;;;0.80;;
47153;SDS011;32907;41.412;2.164;2023-05-10T05:33:39;3.78;;;0.95;;
47153;SDS011;32907;41.412;2.164;2023-05-10T05:36:07;3.35;;;0.80;;
47153;SDS011;32907;41.412;2.164;2023-05-10T05:38:35;2.67;;;0.90;;
47153;SDS011;32907;41.412;2.164;2023-05-10T05:41:04;6.40;;;1.08;;
47153;SDS011;32907;41.412;2.164;2023-05-10T05:43:33;2.92;;;0.63;;
47153;SDS011;32907;41.412;2.164;2023-05-10T05:46:04;2.22;;;0.88;;
47153;SDS011;32907;41.412;2.164;2023-05-10T05:48:32;3.00;;;0.88;;
47153;SDS011;32907;41.412;2.164;2023-05-10T05:51:00;2.72;;;1.33;;
47153;SDS011;32907;41.412;2.164;2023-05-10T05:53:29;3.25;;;1.63;;
47153;SDS011;32907;41.412;2.164;2023-05-10T05:55:58;3.72;;;1.00;;
47153;SDS011;32907;41.412;2.164;2023-05-10T05:58:26;3.53;;;0.75;;
47153;SDS011;32907;41.412;2.164;2023-05-10T06:00:54;2.40;;;0.82;;
47153;SDS011;32907;41.412;2.164;2023-05-10T06:03:22;3.78;;;0.82;;
47153;SDS011;32907;41.412;2.164;2023-05-10T06:05:50;5.72;;;1.20;;
47153;SDS011;32907;41.412;2.164;2023-05-10T06:08:18;5.63;;;0.80;;
47153;SDS011;32907;41.412;2.164;2023-05-10T06:10:46;2.97;;;0.75;;
47153;SDS011;32907;41.412;2.164;2023-05-10T06:13:14;3.95;;;1.00;;
47153;SDS011;32907;41.412;2.164;2023-05-10T06:15:44;2.95;;;0.70;;
47153;SDS011;32907;41.412;2.164;2023-05-10T06:18:11;2.83;;;0.90;;
47153;SDS011;32907;41.412;2.164;2023-05-10T06:20:40;1.85;;;0.68;;
47153;SDS011;32907;41.412;2.164;2023-05-10T06:23:11;4.90;;;0.70;;
47153;SDS011;32907;41.412;2.164;2023-05-10T06:25:39;4.88;;;0.80;;
47153;SDS011;32907;41.412;2.164;2023-05-10T06:28:07;2.55;;;0.90;;
47153;SDS011;32907;41.412;2.164;2023-05-10T06:30:36;4.07;;;0.80;;
47153;SDS011;32907;41.412;2.164;2023-05-10T06:33:05;2.90;;;0.95;;
47153;SDS011;32907;41.412;2.164;2023-05-10T06:35:33;2.63;;;0.98;;
47153;SDS011;32907;41.412;2.164;2023-05-10T06:38:01;5.50;;;1.05;;
47153;SDS011;32907;41.412;2.164;2023-05-10T06:40:30;3.25;;;0.85;;
47153;SDS011;32907;41.412;2.164;2023-05-10T06:42:58;4.03;;;1.27;;
47153;SDS011;32907;41.412;2.164;2023-05-10T06:45:26;5.47;;;1.52;;
47153;SDS011;32907;41.412;2.164;2023-05-10T06:47:54;6.35;;;1.88;;
47153;SDS011;32907;41.412;2.164;2023-05-10T06:50:22;12.43;;;2.45;;
47153;SDS011;32907;41.412;2.164;2023-05-10T06:52:50;8.05;;;1.83;;
47153;SDS011;32907;41.412;2.164;2023-05-10T06:55:19;12.73;;;2.33;;
47153;SDS011;32907;41.412;2.164;2023-05-10T06:57:47;14.70;;;2.90;;
47153;SDS011;32907;41.412;2.164;2023-05-10T07:00:15;16.70;;;3.53;;
47153;SDS011;32907;41.412;2.164;2023-05-10T07:02:44;16.45;;;2.95;;
47153;SDS011;32907;41.412;2.164;2023-05-10T07:05:12;16.23;;;3.00;;
47153;SDS011;32907;41.412;2.164;2023-05-10T07:07:41;15.10;;;4.03;;
47153;SDS011;32907;41.412;2.164;2023-05-10T07:10:09;13.57;;;3.13;;
47153;SDS011;32907;41.412;2.164;2023-05-10T07:12:37;17.10;;;2.95;;
47153;SDS011;32907;41.412;2.164;2023-05-10T07:15:13;23.63;;;4.05;;
47153;SDS011;32907;41.412;2.164;2023-05-10T07:17:41;20.33;;;4.18;;
47153;SDS011;32907;41.412;2.164;2023-05-10T07:20:11;19.10;;;4.22;;
47153;SDS011;32907;41.412;2.164;2023-05-10T07:22:40;29.48;;;4.15;;
47153;SDS011;32907;41.412;2.164;2023-05-10T07:25:07;24.85;;;3.70;;
47153;SDS011;32907;41.412;2.164;2023-05-10T07:27:35;27.52;;;4.25;;
47153;SDS011;32907;41.412;2.164;2023-05-10T07:30:04;12.52;;;2.90;;
47153;SDS011;32907;41.412;2.164;2023-05-10T07:32:32;15.40;;;3.08;;
47153;SDS011;32907;41.412;2.164;2023-05-10T07:35:00;14.98;;;2.28;;
47153;SDS011;32907;41.412;2.164;2023-05-10T07:37:28;13.18;;;2.75;;
47153;SDS011;32907;41.412;2.164;2023-05-10T07:39:56;13.82;;;3.72;;
47153;SDS011;32907;41.412;2.164;2023-05-10T07:42:24;8.30;;;2.88;;
47153;SDS011;32907;41.412;2.164;2023-05-10T07:44:53;22.83;;;4.13;;
47153;SDS011;32907;41.412;2.164;2023-05-10T07:47:21;17.67;;;3.80;;
47153;SDS011;32907;41.412;2.164;2023-05-10T07:49:49;14.73;;;4.57;;
47153;SDS011;32907;41.412;2.164;2023-05-10T07:52:17;13.77;;;3.97;;
47153;SDS011;32907;41.412;2.164;2023-05-10T07:54:48;12.27;;;2.90;;
47153;SDS011;32907;41.412;2.164;2023-05-10T07:57:17;15.65;;;3.08;;
47153;SDS011;32907;41.412;2.164;2023-05-10T07:59:45;9.20;;;1.70;;
47153;SDS011;32907;41.412;2.164;2023-05-10T08:02:14;6.25;;;1.30;;
47153;SDS011;32907;41.412;2.164;2023-05-10T08:04:42;11.85;;;1.90;;
47153;SDS011;32907;41.412;2.164;2023-05-10T08:07:10;5.72;;;1.27;;
47153;SDS011;32907;41.412;2.164;2023-05-10T08:09:38;10.75;;;2.20;;
47153;SDS011;32907;41.412;2.164;2023-05-10T08:12:06;14.60;;;1.90;;
47153;SDS011;32907;41.412;2.164;2023-05-10T08:14:34;18.75;;;2.55;;
47153;SDS011;32907;41.412;2.164;2023-05-10T08:17:04;51.80;;;6.15;;
47153;SDS011;32907;41.412;2.164;2023-05-10T08:19:32;88.72;;;9.98;;
47153;SDS011;32907;41.412;2.164;2023-05-10T08:22:00;169.00;;;15.88;;
47153;SDS011;32907;41.412;2.164;2023-05-10T08:24:28;177.63;;;15.50;;
47153;SDS011;32907;41.412;2.164;2023-05-10T08:26:56;128.70;;;13.93;;
47153;SDS011;32907;41.412;2.164;2023-05-10T08:29:24;157.38;;;16.52;;
47153;SDS011;32907;41.412;2.164;2023-05-10T08:31:56;126.78;;;13.23;;
47153;SDS011;32907;41.412;2.164;2023-05-10T08:34:24;85.45;;;9.63;;
47153;SDS011;32907;41.412;2.164;2023-05-10T08:36:52;54.88;;;6.28;;
47153;SDS011;32907;41.412;2.164;2023-05-10T08:39:20;44.70;;;7.65;;
47153;SDS011;32907;41.412;2.164;2023-05-10T08:41:57;25.40;;;7.78;;
47153;SDS011;32907;41.412;2.164;2023-05-10T08:44:30;28.77;;;7.72;;
47153;SDS011;32907;41.412;2.164;2023-05-10T08:47:00;15.85;;;6.43;;
47153;SDS011;32907;41.412;2.164;2023-05-10T08:49:32;10.15;;;4.45;;
47153;SDS011;32907;41.412;2.164;2023-05-10T08:52:02;10.43;;;3.50;;
47153;SDS011;32907;41.412;2.164;2023-05-10T08:54:32;13.95;;;3.47;;
47153;SDS011;32907;41.412;2.164;2023-05-10T08:57:01;8.38;;;2.97;;
47153;SDS011;32907;41.412;2.164;2023-05-10T08:59:29;9.23;;;3.58;;
47153;SDS011;32907;41.412;2.164;2023-05-10T09:01:58;8.15;;;3.55;;
47153;SDS011;32907;41.412;2.164;2023-05-10T09:04:27;7.68;;;3.53;;
47153;SDS011;32907;41.412;2.164;2023-05-10T09:06:57;13.05;;;3.45;;
47153;SDS011;32907;41.412;2.164;2023-05-10T09:09:25;12.02;;;3.88;;
47153;SDS011;32907;41.412;2.164;2023-05-10T09:11:54;10.48;;;3.35;;
47153;SDS011;32907;41.412;2.164;2023-05-10T09:14:23;11.55;;;3.00;;
47153;SDS011;32907;41.412;2.164;2023-05-10T09:16:53;9.45;;;2.63;;
47153;SDS011;32907;41.412;2.164;2023-05-10T09:19:22;9.25;;;2.13;;
47153;SDS011;32907;41.412;2.164;2023-05-10T09:21:51;6.75;;;2.67;;
47153;SDS011;32907;41.412;2.164;2023-05-10T09:24:19;4.90;;;2.00;;
47153;SDS011;32907;41.412;2.164;2023-05-10T09:26:47;7.65;;;2.60;;
47153;SDS011;32907;41.412;2.164;2023-05-10T09:29:16;5.07;;;2.30;;
47153;SDS011;32907;41.412;2.164;2023-05-10T09:31:45;7.68;;;2.88;;
47153;SDS011;32907;41.412;2.164;2023-05-10T09:34:28;7.80;;;2.85;;
47153;SDS011;32907;41.412;2.164;2023-05-10T09:37:00;5.72;;;2.20;;
47153;SDS011;32907;41.412;2.164;2023-05-10T09:39:33;7.30;;;2.90;;
47153;SDS011;32907;41.412;2.164;2023-05-10T09:42:06;8.85;;;3.58;;
47153;SDS011;32907;41.412;2.164;2023-05-10T09:44:38;12.10;;;3.80;;
47153;SDS011;32907;41.412;2.164;2023-05-10T09:47:08;9.73;;;3.88;;
47153;SDS011;32907;41.412;2.164;2023-05-10T09:49:36;11.55;;;4.68;;
47153;SDS011;32907;41.412;2.164;2023-05-10T09:52:05;12.93;;;5.45;;
47153;SDS011;32907;41.412;2.164;2023-05-10T09:54:35;16.95;;;5.80;;
47153;SDS011;32907;41.412;2.164;2023-05-10T09:57:04;14.80;;;5.10;;
47153;SDS011;32907;41.412;2.164;2023-05-10T09:59:34;12.23;;;4.68;;
47153;SDS011;32907;41.412;2.164;2023-05-10T10:02:03;13.80;;;4.22;;
47153;SDS011;32907;41.412;2.164;2023-05-10T10:04:32;14.32;;;4.35;;
47153;SDS011;32907;41.412;2.164;2023-05-10T10:07:06;43.90;;;6.80;;
47153;SDS011;32907;41.412;2.164;2023-05-10T10:09:34;21.75;;;4.82;;
47153;SDS011;32907;41.412;2.164;2023-05-10T10:12:03;15.48;;;4.53;;
47153;SDS011;32907;41.412;2.164;2023-05-10T10:14:32;12.88;;;4.53;;
47153;SDS011;32907;41.412;2.164;2023-05-10T10:17:01;15.18;;;3.90;;
47153;SDS011;32907;41.412;2.164;2023-05-10T10:19:35;14.45;;;4.10;;
47153;SDS011;32907;41.412;2.164;2023-05-10T10:22:04;12.80;;;4.60;;
47153;SDS011;32907;41.412;2.164;2023-05-10T10:24:33;18.38;;;4.88;;
47153;SDS011;32907;41.412;2.164;2023-05-10T10:27:09;17.88;;;5.95;;
47153;SDS011;32907;41.412;2.164;2023-05-10T10:29:47;23.60;;;6.22;;
47153;SDS011;32907;41.412;2.164;2023-05-10T10:32:42;32.08;;;7.00;;
47153;SDS011;32907;41.412;2.164;2023-05-10T10:35:20;48.72;;;8.45;;
47153;SDS011;32907;41.412;2.164;2023-05-10T10:37:50;62.47;;;10.20;;
47153;SDS011;32907;41.412;2.164;2023-05-10T10:40:34;44.60;;;7.55;;
47153;SDS011;32907;41.412;2.164;2023-05-10T10:44:37;23.08;;;5.07;;
47153;SDS011;32907;41.412;2.164;2023-05-10T10:51:18;23.10;;;3.55;;
47153;SDS011;32907;41.412;2.164;2023-05-10T10:53:50;25.77;;;4.35;;
47153;SDS011;32907;41.412;2.164;2023-05-10T11:03:31;16.38;;;2.65;;
47153;SDS011;32907;41.412;2.164;2023-05-10T11:07:34;18.17;;;2.75;;
47153;SDS011;32907;41.412;2.164;2023-05-10T11:13:45;9.90;;;2.47;;
47153;SDS011;32907;41.412;2.164;2023-05-10T11:19:02;11.95;;;1.95;;
47153;SDS011;32907;41.412;2.164;2023-05-10T11:22:11;8.93;;;2.22;;
47153;SDS011;32907;41.412;2.164;2023-05-10T11:24:41;9.35;;;2.53;;
47153;SDS011;32907;41.412;2.164;2023-05-10T11:27:25;10.70;;;3.15;;
47153;SDS011;32907;41.412;2.164;2023-05-10T11:29:54;11.20;;;3.10;;
47153;SDS011;32907;41.412;2.164;2023-05-10T11:32:22;11.82;;;3.45;;
47153;SDS011;32907;41.412;2.164;2023-05-10T11:34:51;11.68;;;3.42;;
47153;SDS011;32907;41.412;2.164;2023-05-10T11:37:19;9.25;;;3.67;;
47153;SDS011;32907;41.412;2.164;2023-05-10T11:39:47;10.40;;;3.58;;
47153;SDS011;32907;41.412;2.164;2023-05-10T11:42:17;10.20;;;3.30;;
47153;SDS011;32907;41.412;2.164;2023-05-10T11:44:45;14.27;;;4.43;;
47153;SDS011;32907;41.412;2.164;2023-05-10T11:47:14;11.27;;;4.30;;
47153;SDS011;32907;41.412;2.164;2023-05-10T11:49:43;17.77;;;4.97;;
47153;SDS011;32907;41.412;2.164;2023-05-10T11:52:12;10.98;;;3.53;;
47153;SDS011;32907;41.412;2.164;2023-05-10T11:54:53;11.93;;;3.70;;
47153;SDS011;32907;41.412;2.164;2023-05-10T11:57:25;8.27;;;3.67;;
47153;SDS011;32907;41.412;2.164;2023-05-10T11:59:55;8.75;;;3.90;;
47153;SDS011;32907;41.412;2.164;2023-05-10T12:02:25;11.05;;;3.78;;
47153;SDS011;32907;41.412;2.164;2023-05-10T12:04:55;9.35;;;3.03;;
47153;SDS011;32907;41.412;2.164;2023-05-10T12:07:25;9.63;;;3.08;;
47153;SDS011;32907;41.412;2.164;2023-05-10T12:10:06;9.38;;;3.25;;
47153;SDS011;32907;41.412;2.164;2023-05-10T12:15:05;5.90;;;2.35;;
47153;SDS011;32907;41.412;2.164;2023-05-10T12:17:39;7.93;;;2.47;;
47153;SDS011;32907;41.412;2.164;2023-05-10T12:20:19;8.73;;;2.83;;
47153;SDS011;32907;41.412;2.164;2023-05-10T12:22:53;7.18;;;1.85;;
47153;SDS011;32907;41.412;2.164;2023-05-10T12:25:30;7.22;;;1.90;;
47153;SDS011;32907;41.412;2.164;2023-05-10T12:28:03;8.00;;;2.57;;
47153;SDS011;32907;41.412;2.164;2023-05-10T12:33:20;6.63;;;1.88;;
47153;SDS011;32907;41.412;2.164;2023-05-10T12:35:50;8.02;;;2.05;;
47153;SDS011;32907;41.412;2.164;2023-05-10T12:38:24;13.95;;;2.70;;
47153;SDS011;32907;41.412;2.164;2023-05-10T12:41:12;7.90;;;2.53;;
47153;SDS011;32907;41.412;2.164;2023-05-10T12:43:43;7.70;;;2.45;;
47153;SDS011;32907;41.412;2.164;2023-05-10T12:46:13;11.75;;;2.83;;
47153;SDS011;32907;41.412;2.164;2023-05-10T12:48:43;12.43;;;6.40;;
47153;SDS011;32907;41.412;2.164;2023-05-10T12:51:12;38.20;;;19.42;;
47153;SDS011;32907;41.412;2.164;2023-05-10T12:53:44;31.48;;;19.02;;
47153;SDS011;32907;41.412;2.164;2023-05-10T12:56:22;23.45;;;15.35;;
47153;SDS011;32907;41.412;2.164;2023-05-10T12:58:55;22.90;;;11.70;;
47153;SDS011;32907;41.412;2.164;2023-05-10T13:01:23;20.40;;;8.90;;
47153;SDS011;32907;41.412;2.164;2023-05-10T13:03:51;11.65;;;6.72;;
47153;SDS011;32907;41.412;2.164;2023-05-10T13:06:19;15.55;;;5.07;;
47153;SDS011;32907;41.412;2.164;2023-05-10T13:08:48;11.38;;;4.45;;
47153;SDS011;32907;41.412;2.164;2023-05-10T13:11:16;12.20;;;4.72;;
47153;SDS011;32907;41.412;2.164;2023-05-10T13:13:47;20.88;;;8.82;;
47153;SDS011;32907;41.412;2.164;2023-05-10T13:16:15;15.55;;;7.75;;
47153;SDS011;32907;41.412;2.164;2023-05-10T13:18:44;13.25;;;6.05;;
47153;SDS011;32907;41.412;2.164;2023-05-10T13:21:12;11.60;;;5.80;;
47153;SDS011;32907;41.412;2.164;2023-05-10T13:23:40;12.32;;;5.50;;
47153;SDS011;32907;41.412;2.164;2023-05-10T13:26:08;14.93;;;5.90;;
47153;SDS011;32907;41.412;2.164;2023-05-10T13:28:37;12.20;;;5.40;;
47153;SDS011;32907;41.412;2.164;2023-05-10T13:31:06;16.58;;;5.85;;
47153;SDS011;32907;41.412;2.164;2023-05-10T13:33:35;17.15;;;6.50;;
47153;SDS011;32907;41.412;2.164;2023-05-10T13:36:03;13.85;;;4.93;;
47153;SDS011;32907;41.412;2.164;2023-05-10T13:38:32;14.13;;;4.45;;
47153;SDS011;32907;41.412;2.164;2023-05-10T13:41:00;9.68;;;3.22;;
47153;SDS011;32907;41.412;2.164;2023-05-10T13:43:29;11.85;;;3.85;;
47153;SDS011;32907;41.412;2.164;2023-05-10T13:45:58;14.68;;;3.60;;
47153;SDS011;32907;41.412;2.164;2023-05-10T13:48:36;7.47;;;3.05;;
47153;SDS011;32907;41.412;2.164;2023-05-10T13:51:07;7.50;;;2.97;;
47153;SDS011;32907;41.412;2.164;2023-05-10T13:53:36;11.25;;;3.22;;
47153;SDS011;32907;41.412;2.164;2023-05-10T13:56:09;17.10;;;3.60;;
47153;SDS011;32907;41.412;2.164;2023-05-10T13:58:37;25.00;;;3.85;;
47153;SDS011;32907;41.412;2.164;2023-05-10T14:01:07;29.17;;;4.45;;
47153;SDS011;32907;41.412;2.164;2023-05-10T14:03:35;24.20;;;3.40;;
47153;SDS011;32907;41.412;2.164;2023-05-10T14:06:03;30.35;;;4.22;;
47153;SDS011;32907;41.412;2.164;2023-05-10T14:08:32;23.08;;;4.18;;
47153;SDS011;32907;41.412;2.164;2023-05-10T14:11:00;18.48;;;3.53;;
47153;SDS011;32907;41.412;2.164;2023-05-10T14:13:28;35.85;;;4.90;;
47153;SDS011;32907;41.412;2.164;2023-05-10T14:15:56;16.58;;;3.28;;
47153;SDS011;32907;41.412;2.164;2023-05-10T14:18:24;12.60;;;2.80;;
47153;SDS011;32907;41.412;2.164;2023-05-10T14:20:53;12.63;;;2.90;;
47153;SDS011;32907;41.412;2.164;2023-05-10T14:23:22;12.93;;;3.28;;
47153;SDS011;32907;41.412;2.164;2023-05-10T14:25:54;10.25;;;2.70;;
47153;SDS011;32907;41.412;2.164;2023-05-10T14:28:22;10.88;;;2.97;;
47153;SDS011;32907;41.412;2.164;2023-05-10T14:30:51;11.73;;;3.20;;
47153;SDS011;32907;41.412;2.164;2023-05-10T14:33:19;8.82;;;2.88;;
47153;SDS011;32907;41.412;2.164;2023-05-10T14:35:48;8.35;;;2.65;;
47153;SDS011;32907;41.412;2.164;2023-05-10T14:38:16;11.68;;;2.20;;
47153;SDS011;32907;41.412;2.164;2023-05-10T14:40:44;10.90;;;3.33;;
47153;SDS011;32907;41.412;2.164;2023-05-10T14:43:12;8.40;;;2.80;;
47153;SDS011;32907;41.412;2.164;2023-05-10T14:45:40;9.63;;;2.60;;
47153;SDS011;32907;41.412;2.164;2023-05-10T14:48:09;10.32;;;2.83;;
47153;SDS011;32907;41.412;2.164;2023-05-10T14:50:39;11.20;;;3.92;;
47153;SDS011;32907;41.412;2.164;2023-05-10T14:53:07;15.07;;;4.43;;
47153;SDS011;32907;41.412;2.164;2023-05-10T14:55:35;32.28;;;5.40;;
47153;SDS011;32907;41.412;2.164;2023-05-10T14:58:04;26.95;;;5.45;;
47153;SDS011;32907;41.412;2.164;2023-05-10T15:00:32;21.25;;;5.30;;
47153;SDS011;32907;41.412;2.164;2023-05-10T15:03:01;17.70;;;4.88;;
47153;SDS011;32907;41.412;2.164;2023-05-10T15:05:32;13.52;;;3.42;;
47153;SDS011;32907;41.412;2.164;2023-05-10T15:08:02;10.48;;;2.85;;
47153;SDS011;32907;41.412;2.164;2023-05-10T15:10:30;7.38;;;2.63;;
47153;SDS011;32907;41.412;2.164;2023-05-10T15:13:00;12.63;;;2.75;;
47153;SDS011;32907;41.412;2.164;2023-05-10T15:15:29;11.02;;;2.95;;
47153;SDS011;32907;41.412;2.164;2023-05-10T15:17:58;12.60;;;2.70;;
47153;SDS011;32907;41.412;2.164;2023-05-10T15:20:26;7.60;;;2.70;;
47153;SDS011;32907;41.412;2.164;2023-05-10T15:22:54;9.63;;;3.15;;
47153;SDS011;32907;41.412;2.164;2023-05-10T15:25:22;9.90;;;2.90;;
47153;SDS011;32907;41.412;2.164;2023-05-10T15:27:51;9.77;;;2.40;;
47153;SDS011;32907;41.412;2.164;2023-05-10T15:30:19;9.30;;;2.53;;
47153;SDS011;32907;41.412;2.164;2023-05-10T15:32:48;8.45;;;2.78;;
47153;SDS011;32907;41.412;2.164;2023-05-10T15:35:16;5.97;;;1.75;;
47153;SDS011;32907;41.412;2.164;2023-05-10T15:37:46;8.70;;;2.47;;
47153;SDS011;32907;41.412;2.164;2023-05-10T15:40:16;9.48;;;2.22;;
47153;SDS011;32907;41.412;2.164;2023-05-10T15:42:44;7.63;;;2.17;;